sensor_id;sensor_type;location;lat;lon;timestamp;P1;durP1;ratioP1;P2;durP2;ratioP2
62997;SDS011;55949;52.590;7.330;2023-04-24T00:00:34;2.60;;;2.40;;
62997;SDS011;55949;52.590;7.330;2023-04-24T00:01:34;1.73;;;1.40;;
62997;SDS011;55949;52.590;7.330;2023-04-24T00:02:36;1.88;;;1.33;;
62997;SDS011;55949;52.590;7.330;2023-04-24T00:03:40;3.15;;;1.27;;
62997;SDS011;55949;52.590;7.330;2023-04-24T00:04:41;3.97;;;1.77;;
62997;SDS011;55949;52.590;7.330;2023-04-24T00:05:44;2.28;;;2.05;;
62997;SDS011;55949;52.590;7.330;2023-04-24T00:06:45;2.55;;;1.80;;
62997;SDS011;55949;52.590;7.330;2023-04-24T00:07:49;2.25;;;1.63;;
62997;SDS011;55949;52.590;7.330;2023-04-24T00:08:52;3.53;;;3.22;;
62997;SDS011;55949;52.590;7.330;2023-04-24T00:09:53;5.03;;;2.97;;
62997;SDS011;55949;52.590;7.330;2023-04-24T00:10:54;3.58;;;2.22;;
62997;SDS011;55949;52.590;7.330;2023-04-24T00:11:54;2.95;;;2.65;;
62997;SDS011;55949;52.590;7.330;2023-04-24T00:12:56;3.28;;;2.25;;
62997;SDS011;55949;52.590;7.330;2023-04-24T00:13:56;3.60;;;2.78;;
62997;SDS011;55949;52.590;7.330;2023-04-24T00:14:57;3.20;;;2.35;;
62997;SDS011;55949;52.590;7.330;2023-04-24T00:15:58;2.53;;;2.00;;
62997;SDS011;55949;52.590;7.330;2023-04-24T00:16:58;2.97;;;2.13;;
62997;SDS011;55949;52.590;7.330;2023-04-24T00:17:59;3.10;;;1.92;;
62997;SDS011;55949;52.590;7.330;2023-04-24T00:19:01;3.58;;;2.88;;
62997;SDS011;55949;52.590;7.330;2023-04-24T00:20:02;4.68;;;3.78;;
62997;SDS011;55949;52.590;7.330;2023-04-24T00:21:04;3.72;;;3.17;;
62997;SDS011;55949;52.590;7.330;2023-04-24T00:22:05;4.20;;;2.70;;
62997;SDS011;55949;52.590;7.330;2023-04-24T00:23:06;3.22;;;2.42;;
62997;SDS011;55949;52.590;7.330;2023-04-24T00:24:06;4.75;;;4.35;;
62997;SDS011;55949;52.590;7.330;2023-04-24T00:25:09;4.43;;;3.28;;
62997;SDS011;55949;52.590;7.330;2023-04-24T00:26:09;5.57;;;3.85;;
62997;SDS011;55949;52.590;7.330;2023-04-24T00:27:10;6.05;;;3.10;;
62997;SDS011;55949;52.590;7.330;2023-04-24T00:28:11;5.47;;;3.30;;
62997;SDS011;55949;52.590;7.330;2023-04-24T00:29:12;5.05;;;3.47;;
62997;SDS011;55949;52.590;7.330;2023-04-24T00:30:13;4.75;;;3.40;;
62997;SDS011;55949;52.590;7.330;2023-04-24T00:31:14;4.72;;;2.97;;
62997;SDS011;55949;52.590;7.330;2023-04-24T00:32:14;5.88;;;2.80;;
62997;SDS011;55949;52.590;7.330;2023-04-24T00:33:15;4.18;;;2.67;;
62997;SDS011;55949;52.590;7.330;2023-04-24T00:34:16;4.53;;;3.10;;
62997;SDS011;55949;52.590;7.330;2023-04-24T00:35:16;3.95;;;2.60;;
62997;SDS011;55949;52.590;7.330;2023-04-24T00:36:19;4.07;;;3.63;;
62997;SDS011;55949;52.590;7.330;2023-04-24T00:37:20;5.35;;;4.95;;
62997;SDS011;55949;52.590;7.330;2023-04-24T00:38:21;4.82;;;3.72;;
62997;SDS011;55949;52.590;7.330;2023-04-24T00:39:22;4.55;;;2.85;;
62997;SDS011;55949;52.590;7.330;2023-04-24T00:40:22;3.92;;;3.33;;
62997;SDS011;55949;52.590;7.330;2023-04-24T00:41:26;4.97;;;3.67;;
62997;SDS011;55949;52.590;7.330;2023-04-24T00:42:27;4.97;;;4.47;;
62997;SDS011;55949;52.590;7.330;2023-04-24T00:43:28;3.83;;;3.42;;
62997;SDS011;55949;52.590;7.330;2023-04-24T00:44:28;5.35;;;3.03;;
62997;SDS011;55949;52.590;7.330;2023-04-24T00:45:29;3.70;;;2.85;;
62997;SDS011;55949;52.590;7.330;2023-04-24T00:46:31;4.40;;;3.88;;
62997;SDS011;55949;52.590;7.330;2023-04-24T00:47:34;4.55;;;3.10;;
62997;SDS011;55949;52.590;7.330;2023-04-24T00:48:36;4.00;;;2.47;;
62997;SDS011;55949;52.590;7.330;2023-04-24T00:49:39;4.28;;;3.47;;
62997;SDS011;55949;52.590;7.330;2023-04-24T00:50:39;4.35;;;3.20;;
62997;SDS011;55949;52.590;7.330;2023-04-24T00:51:40;8.98;;;4.40;;
62997;SDS011;55949;52.590;7.330;2023-04-24T00:52:45;5.70;;;3.78;;
62997;SDS011;55949;52.590;7.330;2023-04-24T00:53:46;4.82;;;3.13;;
62997;SDS011;55949;52.590;7.330;2023-04-24T00:54:47;4.28;;;3.70;;
62997;SDS011;55949;52.590;7.330;2023-04-24T00:55:48;4.55;;;3.97;;
62997;SDS011;55949;52.590;7.330;2023-04-24T00:56:48;5.32;;;4.20;;
62997;SDS011;55949;52.590;7.330;2023-04-24T00:57:51;4.40;;;4.00;;
62997;SDS011;55949;52.590;7.330;2023-04-24T00:58:52;4.25;;;3.65;;
62997;SDS011;55949;52.590;7.330;2023-04-24T00:59:53;4.03;;;3.55;;
62997;SDS011;55949;52.590;7.330;2023-04-24T01:00:54;4.28;;;3.20;;
62997;SDS011;55949;52.590;7.330;2023-04-24T01:01:57;7.20;;;4.47;;
62997;SDS011;55949;52.590;7.330;2023-04-24T01:02:59;5.32;;;4.25;;
62997;SDS011;55949;52.590;7.330;2023-04-24T01:04:04;4.20;;;3.80;;
62997;SDS011;55949;52.590;7.330;2023-04-24T01:05:07;4.40;;;2.80;;
62997;SDS011;55949;52.590;7.330;2023-04-24T01:06:08;4.50;;;3.67;;
62997;SDS011;55949;52.590;7.330;2023-04-24T01:07:10;4.97;;;3.90;;
62997;SDS011;55949;52.590;7.330;2023-04-24T01:08:11;4.72;;;3.25;;
62997;SDS011;55949;52.590;7.330;2023-04-24T01:09:12;6.30;;;4.07;;
62997;SDS011;55949;52.590;7.330;2023-04-24T01:10:14;5.35;;;3.40;;
62997;SDS011;55949;52.590;7.330;2023-04-24T01:11:17;7.85;;;3.20;;
62997;SDS011;55949;52.590;7.330;2023-04-24T01:12:19;4.80;;;4.30;;
62997;SDS011;55949;52.590;7.330;2023-04-24T01:13:20;4.90;;;3.30;;
62997;SDS011;55949;52.590;7.330;2023-04-24T01:14:21;3.78;;;2.85;;
62997;SDS011;55949;52.590;7.330;2023-04-24T01:15:22;4.75;;;3.00;;
62997;SDS011;55949;52.590;7.330;2023-04-24T01:16:23;4.85;;;3.90;;
62997;SDS011;55949;52.590;7.330;2023-04-24T01:17:23;4.78;;;4.28;;
62997;SDS011;55949;52.590;7.330;2023-04-24T01:18:24;3.83;;;3.45;;
62997;SDS011;55949;52.590;7.330;2023-04-24T01:19:25;4.22;;;3.83;;
62997;SDS011;55949;52.590;7.330;2023-04-24T01:20:25;4.15;;;3.75;;
62997;SDS011;55949;52.590;7.330;2023-04-24T01:21:27;5.47;;;4.10;;
62997;SDS011;55949;52.590;7.330;2023-04-24T01:22:30;6.60;;;6.03;;
62997;SDS011;55949;52.590;7.330;2023-04-24T01:23:31;4.70;;;3.70;;
62997;SDS011;55949;52.590;7.330;2023-04-24T01:24:31;10.43;;;4.60;;
62997;SDS011;55949;52.590;7.330;2023-04-24T01:25:32;4.03;;;3.10;;
62997;SDS011;55949;52.590;7.330;2023-04-24T01:26:34;5.53;;;3.97;;
62997;SDS011;55949;52.590;7.330;2023-04-24T01:27:38;6.32;;;3.88;;
62997;SDS011;55949;52.590;7.330;2023-04-24T01:28:38;4.57;;;3.60;;
62997;SDS011;55949;52.590;7.330;2023-04-24T01:29:39;4.25;;;3.70;;
62997;SDS011;55949;52.590;7.330;2023-04-24T01:30:40;4.95;;;3.30;;
62997;SDS011;55949;52.590;7.330;2023-04-24T01:31:41;4.93;;;3.17;;
62997;SDS011;55949;52.590;7.330;2023-04-24T01:32:43;3.95;;;2.95;;
62997;SDS011;55949;52.590;7.330;2023-04-24T01:33:45;4.45;;;3.50;;
62997;SDS011;55949;52.590;7.330;2023-04-24T01:34:47;5.65;;;3.97;;
62997;SDS011;55949;52.590;7.330;2023-04-24T01:35:49;5.03;;;3.92;;
62997;SDS011;55949;52.590;7.330;2023-04-24T01:36:50;4.70;;;4.20;;
62997;SDS011;55949;52.590;7.330;2023-04-24T01:37:51;4.18;;;3.17;;
62997;SDS011;55949;52.590;7.330;2023-04-24T01:38:51;6.18;;;4.45;;
62997;SDS011;55949;52.590;7.330;2023-04-24T01:39:52;5.85;;;4.10;;
62997;SDS011;55949;52.590;7.330;2023-04-24T01:40:53;7.68;;;6.25;;
62997;SDS011;55949;52.590;7.330;2023-04-24T01:41:54;5.32;;;4.32;;
62997;SDS011;55949;52.590;7.330;2023-04-24T01:42:55;5.85;;;4.97;;
62997;SDS011;55949;52.590;7.330;2023-04-24T01:43:57;5.70;;;3.92;;
62997;SDS011;55949;52.590;7.330;2023-04-24T01:44:59;7.20;;;4.40;;
62997;SDS011;55949;52.590;7.330;2023-04-24T01:46:00;6.47;;;4.68;;
62997;SDS011;55949;52.590;7.330;2023-04-24T01:47:01;9.18;;;6.55;;
62997;SDS011;55949;52.590;7.330;2023-04-24T01:48:02;6.47;;;4.75;;
62997;SDS011;55949;52.590;7.330;2023-04-24T01:49:03;6.03;;;4.47;;
62997;SDS011;55949;52.590;7.330;2023-04-24T01:50:04;7.53;;;5.15;;
62997;SDS011;55949;52.590;7.330;2023-04-24T01:51:05;5.65;;;4.03;;
62997;SDS011;55949;52.590;7.330;2023-04-24T01:52:06;8.35;;;5.05;;
62997;SDS011;55949;52.590;7.330;2023-04-24T01:53:07;7.80;;;5.18;;
62997;SDS011;55949;52.590;7.330;2023-04-24T01:54:08;7.30;;;4.82;;
62997;SDS011;55949;52.590;7.330;2023-04-24T01:55:09;7.47;;;6.25;;
62997;SDS011;55949;52.590;7.330;2023-04-24T01:56:10;6.85;;;5.75;;
62997;SDS011;55949;52.590;7.330;2023-04-24T01:57:11;8.55;;;6.07;;
62997;SDS011;55949;52.590;7.330;2023-04-24T01:58:13;7.72;;;5.53;;
62997;SDS011;55949;52.590;7.330;2023-04-24T01:59:14;7.20;;;5.63;;
62997;SDS011;55949;52.590;7.330;2023-04-24T02:00:17;7.20;;;4.95;;
62997;SDS011;55949;52.590;7.330;2023-04-24T02:01:18;7.78;;;4.88;;
62997;SDS011;55949;52.590;7.330;2023-04-24T02:02:20;6.95;;;5.40;;
62997;SDS011;55949;52.590;7.330;2023-04-24T02:03:21;8.68;;;6.20;;
62997;SDS011;55949;52.590;7.330;2023-04-24T02:04:21;7.78;;;6.22;;
62997;SDS011;55949;52.590;7.330;2023-04-24T02:05:22;7.93;;;5.60;;
62997;SDS011;55949;52.590;7.330;2023-04-24T02:06:23;8.70;;;5.65;;
62997;SDS011;55949;52.590;7.330;2023-04-24T02:07:24;8.68;;;5.40;;
62997;SDS011;55949;52.590;7.330;2023-04-24T02:08:24;7.75;;;6.82;;
62997;SDS011;55949;52.590;7.330;2023-04-24T02:09:25;9.00;;;6.10;;
62997;SDS011;55949;52.590;7.330;2023-04-24T02:10:26;9.93;;;5.70;;
62997;SDS011;55949;52.590;7.330;2023-04-24T02:11:26;9.48;;;7.63;;
62997;SDS011;55949;52.590;7.330;2023-04-24T02:12:27;10.00;;;7.20;;
62997;SDS011;55949;52.590;7.330;2023-04-24T02:13:28;11.10;;;6.63;;
62997;SDS011;55949;52.590;7.330;2023-04-24T02:14:29;14.95;;;7.82;;
62997;SDS011;55949;52.590;7.330;2023-04-24T02:15:30;9.95;;;6.70;;
62997;SDS011;55949;52.590;7.330;2023-04-24T02:16:30;10.70;;;8.20;;
62997;SDS011;55949;52.590;7.330;2023-04-24T02:17:32;10.63;;;7.05;;
62997;SDS011;55949;52.590;7.330;2023-04-24T02:18:33;10.35;;;8.32;;
62997;SDS011;55949;52.590;7.330;2023-04-24T02:19:34;10.95;;;7.30;;
62997;SDS011;55949;52.590;7.330;2023-04-24T02:20:34;11.77;;;8.05;;
62997;SDS011;55949;52.590;7.330;2023-04-24T02:21:35;9.90;;;6.85;;
62997;SDS011;55949;52.590;7.330;2023-04-24T02:22:36;8.85;;;6.82;;
62997;SDS011;55949;52.590;7.330;2023-04-24T02:23:36;11.30;;;7.93;;
62997;SDS011;55949;52.590;7.330;2023-04-24T02:24:37;9.85;;;8.32;;
62997;SDS011;55949;52.590;7.330;2023-04-24T02:25:38;12.38;;;8.07;;
62997;SDS011;55949;52.590;7.330;2023-04-24T02:26:39;9.73;;;7.63;;
62997;SDS011;55949;52.590;7.330;2023-04-24T02:27:40;9.85;;;7.57;;
62997;SDS011;55949;52.590;7.330;2023-04-24T02:28:40;10.68;;;7.47;;
62997;SDS011;55949;52.590;7.330;2023-04-24T02:29:41;9.88;;;7.65;;
62997;SDS011;55949;52.590;7.330;2023-04-24T02:30:42;9.15;;;6.57;;
62997;SDS011;55949;52.590;7.330;2023-04-24T02:31:42;8.05;;;6.28;;
62997;SDS011;55949;52.590;7.330;2023-04-24T02:32:43;8.88;;;7.13;;
62997;SDS011;55949;52.590;7.330;2023-04-24T02:33:44;9.95;;;6.70;;
62997;SDS011;55949;52.590;7.330;2023-04-24T02:34:44;8.75;;;6.82;;
62997;SDS011;55949;52.590;7.330;2023-04-24T02:35:45;8.18;;;6.75;;
62997;SDS011;55949;52.590;7.330;2023-04-24T02:36:46;7.90;;;6.57;;
62997;SDS011;55949;52.590;7.330;2023-04-24T02:37:46;7.78;;;6.85;;
62997;SDS011;55949;52.590;7.330;2023-04-24T02:38:47;10.65;;;6.25;;
62997;SDS011;55949;52.590;7.330;2023-04-24T02:39:48;11.20;;;6.88;;
62997;SDS011;55949;52.590;7.330;2023-04-24T02:40:49;8.30;;;6.43;;
62997;SDS011;55949;52.590;7.330;2023-04-24T02:41:49;7.85;;;6.32;;
62997;SDS011;55949;52.590;7.330;2023-04-24T02:42:50;8.88;;;6.82;;
62997;SDS011;55949;52.590;7.330;2023-04-24T02:43:50;8.82;;;6.80;;
62997;SDS011;55949;52.590;7.330;2023-04-24T02:44:51;8.75;;;7.10;;
62997;SDS011;55949;52.590;7.330;2023-04-24T02:45:52;8.60;;;7.10;;
62997;SDS011;55949;52.590;7.330;2023-04-24T02:46:52;10.05;;;7.45;;
62997;SDS011;55949;52.590;7.330;2023-04-24T02:47:53;10.88;;;7.53;;
62997;SDS011;55949;52.590;7.330;2023-04-24T02:48:54;10.68;;;7.50;;
62997;SDS011;55949;52.590;7.330;2023-04-24T02:49:55;10.02;;;7.45;;
62997;SDS011;55949;52.590;7.330;2023-04-24T02:50:55;10.10;;;7.40;;
62997;SDS011;55949;52.590;7.330;2023-04-24T02:51:57;9.88;;;7.60;;
62997;SDS011;55949;52.590;7.330;2023-04-24T02:52:58;9.90;;;7.15;;
62997;SDS011;55949;52.590;7.330;2023-04-24T02:53:58;10.27;;;8.00;;
62997;SDS011;55949;52.590;7.330;2023-04-24T02:54:59;11.43;;;7.43;;
62997;SDS011;55949;52.590;7.330;2023-04-24T02:56:00;9.02;;;7.90;;
62997;SDS011;55949;52.590;7.330;2023-04-24T02:57:00;8.77;;;7.55;;
62997;SDS011;55949;52.590;7.330;2023-04-24T02:58:01;9.80;;;8.23;;
62997;SDS011;55949;52.590;7.330;2023-04-24T02:59:02;8.65;;;7.40;;
62997;SDS011;55949;52.590;7.330;2023-04-24T03:00:03;10.73;;;7.53;;
62997;SDS011;55949;52.590;7.330;2023-04-24T03:01:07;10.50;;;8.00;;
62997;SDS011;55949;52.590;7.330;2023-04-24T03:02:07;9.05;;;7.28;;
62997;SDS011;55949;52.590;7.330;2023-04-24T03:03:08;10.93;;;7.80;;
62997;SDS011;55949;52.590;7.330;2023-04-24T03:04:09;9.63;;;7.35;;
62997;SDS011;55949;52.590;7.330;2023-04-24T03:05:10;9.88;;;7.20;;
62997;SDS011;55949;52.590;7.330;2023-04-24T03:06:12;9.65;;;7.70;;
62997;SDS011;55949;52.590;7.330;2023-04-24T03:07:15;9.82;;;7.95;;
62997;SDS011;55949;52.590;7.330;2023-04-24T03:08:16;11.40;;;8.07;;
62997;SDS011;55949;52.590;7.330;2023-04-24T03:09:17;11.20;;;7.72;;
62997;SDS011;55949;52.590;7.330;2023-04-24T03:10:18;11.48;;;7.95;;
62997;SDS011;55949;52.590;7.330;2023-04-24T03:11:19;9.45;;;7.10;;
62997;SDS011;55949;52.590;7.330;2023-04-24T03:12:20;9.38;;;7.93;;
62997;SDS011;55949;52.590;7.330;2023-04-24T03:13:23;9.48;;;7.35;;
62997;SDS011;55949;52.590;7.330;2023-04-24T03:14:24;8.82;;;7.28;;
62997;SDS011;55949;52.590;7.330;2023-04-24T03:15:24;10.10;;;8.07;;
62997;SDS011;55949;52.590;7.330;2023-04-24T03:16:26;9.15;;;6.80;;
62997;SDS011;55949;52.590;7.330;2023-04-24T03:17:27;10.77;;;7.60;;
62997;SDS011;55949;52.590;7.330;2023-04-24T03:18:28;11.40;;;8.05;;
62997;SDS011;55949;52.590;7.330;2023-04-24T03:19:28;9.23;;;7.00;;
62997;SDS011;55949;52.590;7.330;2023-04-24T03:20:29;9.45;;;6.25;;
62997;SDS011;55949;52.590;7.330;2023-04-24T03:21:30;7.93;;;5.70;;
62997;SDS011;55949;52.590;7.330;2023-04-24T03:22:31;7.72;;;5.72;;
62997;SDS011;55949;52.590;7.330;2023-04-24T03:23:32;8.38;;;6.05;;
62997;SDS011;55949;52.590;7.330;2023-04-24T03:24:33;8.60;;;6.28;;
62997;SDS011;55949;52.590;7.330;2023-04-24T03:25:34;8.05;;;6.07;;
62997;SDS011;55949;52.590;7.330;2023-04-24T03:26:34;11.48;;;6.97;;
62997;SDS011;55949;52.590;7.330;2023-04-24T03:27:35;8.50;;;6.40;;
62997;SDS011;55949;52.590;7.330;2023-04-24T03:28:36;10.48;;;6.38;;
62997;SDS011;55949;52.590;7.330;2023-04-24T03:29:36;10.00;;;6.80;;
62997;SDS011;55949;52.590;7.330;2023-04-24T03:30:37;10.93;;;6.63;;
62997;SDS011;55949;52.590;7.330;2023-04-24T03:31:38;10.02;;;7.05;;
62997;SDS011;55949;52.590;7.330;2023-04-24T03:32:38;8.45;;;6.55;;
62997;SDS011;55949;52.590;7.330;2023-04-24T03:33:39;9.43;;;6.95;;
62997;SDS011;55949;52.590;7.330;2023-04-24T03:34:40;11.52;;;6.93;;
62997;SDS011;55949;52.590;7.330;2023-04-24T03:35:41;10.65;;;7.20;;
62997;SDS011;55949;52.590;7.330;2023-04-24T03:36:42;11.40;;;6.93;;
62997;SDS011;55949;52.590;7.330;2023-04-24T03:37:42;11.05;;;7.60;;
62997;SDS011;55949;52.590;7.330;2023-04-24T03:38:43;12.30;;;7.78;;
62997;SDS011;55949;52.590;7.330;2023-04-24T03:39:44;10.25;;;7.72;;
62997;SDS011;55949;52.590;7.330;2023-04-24T03:40:44;10.43;;;8.00;;
62997;SDS011;55949;52.590;7.330;2023-04-24T03:41:45;10.23;;;7.97;;
62997;SDS011;55949;52.590;7.330;2023-04-24T03:42:46;10.80;;;7.65;;
62997;SDS011;55949;52.590;7.330;2023-04-24T03:43:46;9.55;;;7.43;;
62997;SDS011;55949;52.590;7.330;2023-04-24T03:44:47;11.63;;;7.90;;
62997;SDS011;55949;52.590;7.330;2023-04-24T03:45:48;12.82;;;8.88;;
62997;SDS011;55949;52.590;7.330;2023-04-24T03:46:49;11.82;;;7.70;;
62997;SDS011;55949;52.590;7.330;2023-04-24T03:47:49;15.00;;;8.82;;
62997;SDS011;55949;52.590;7.330;2023-04-24T03:48:50;12.60;;;7.88;;
62997;SDS011;55949;52.590;7.330;2023-04-24T03:49:51;11.10;;;8.32;;
62997;SDS011;55949;52.590;7.330;2023-04-24T03:50:52;11.32;;;8.25;;
62997;SDS011;55949;52.590;7.330;2023-04-24T03:51:52;12.98;;;9.20;;
62997;SDS011;55949;52.590;7.330;2023-04-24T03:52:53;15.27;;;9.43;;
62997;SDS011;55949;52.590;7.330;2023-04-24T03:53:54;13.02;;;8.65;;
62997;SDS011;55949;52.590;7.330;2023-04-24T03:54:54;13.75;;;9.18;;
62997;SDS011;55949;52.590;7.330;2023-04-24T03:55:55;12.27;;;8.68;;
62997;SDS011;55949;52.590;7.330;2023-04-24T03:56:56;11.80;;;9.07;;
62997;SDS011;55949;52.590;7.330;2023-04-24T03:57:57;12.95;;;8.80;;
62997;SDS011;55949;52.590;7.330;2023-04-24T03:58:57;15.15;;;9.82;;
62997;SDS011;55949;52.590;7.330;2023-04-24T03:59:58;14.00;;;9.48;;
62997;SDS011;55949;52.590;7.330;2023-04-24T04:00:59;13.73;;;9.10;;
62997;SDS011;55949;52.590;7.330;2023-04-24T04:02:00;14.65;;;9.73;;
62997;SDS011;55949;52.590;7.330;2023-04-24T04:03:01;13.90;;;9.90;;
62997;SDS011;55949;52.590;7.330;2023-04-24T04:04:02;12.13;;;8.52;;
62997;SDS011;55949;52.590;7.330;2023-04-24T04:05:03;14.48;;;9.32;;
62997;SDS011;55949;52.590;7.330;2023-04-24T04:06:04;12.52;;;9.15;;
62997;SDS011;55949;52.590;7.330;2023-04-24T04:07:04;14.65;;;9.13;;
62997;SDS011;55949;52.590;7.330;2023-04-24T04:08:06;13.73;;;8.52;;
62997;SDS011;55949;52.590;7.330;2023-04-24T04:09:06;11.52;;;8.60;;
62997;SDS011;55949;52.590;7.330;2023-04-24T04:10:08;15.13;;;9.68;;
62997;SDS011;55949;52.590;7.330;2023-04-24T04:11:09;13.45;;;8.75;;
62997;SDS011;55949;52.590;7.330;2023-04-24T04:12:10;14.20;;;9.05;;
62997;SDS011;55949;52.590;7.330;2023-04-24T04:13:10;12.18;;;8.85;;
62997;SDS011;55949;52.590;7.330;2023-04-24T04:14:11;12.73;;;9.57;;
62997;SDS011;55949;52.590;7.330;2023-04-24T04:15:12;13.25;;;9.55;;
62997;SDS011;55949;52.590;7.330;2023-04-24T04:16:13;14.82;;;9.40;;
62997;SDS011;55949;52.590;7.330;2023-04-24T04:17:14;16.50;;;9.88;;
62997;SDS011;55949;52.590;7.330;2023-04-24T04:18:15;13.45;;;9.93;;
62997;SDS011;55949;52.590;7.330;2023-04-24T04:19:15;15.13;;;9.40;;
62997;SDS011;55949;52.590;7.330;2023-04-24T04:20:16;14.30;;;9.13;;
62997;SDS011;55949;52.590;7.330;2023-04-24T04:21:17;14.23;;;9.80;;
62997;SDS011;55949;52.590;7.330;2023-04-24T04:22:17;12.90;;;9.35;;
62997;SDS011;55949;52.590;7.330;2023-04-24T04:23:18;15.98;;;10.57;;
62997;SDS011;55949;52.590;7.330;2023-04-24T04:24:19;17.30;;;10.60;;
62997;SDS011;55949;52.590;7.330;2023-04-24T04:25:24;13.10;;;9.10;;
62997;SDS011;55949;52.590;7.330;2023-04-24T04:26:24;13.27;;;9.02;;
62997;SDS011;55949;52.590;7.330;2023-04-24T04:27:25;15.60;;;10.48;;
62997;SDS011;55949;52.590;7.330;2023-04-24T04:28:26;17.25;;;10.27;;
62997;SDS011;55949;52.590;7.330;2023-04-24T04:29:27;14.02;;;9.57;;
62997;SDS011;55949;52.590;7.330;2023-04-24T04:30:28;13.38;;;9.20;;
62997;SDS011;55949;52.590;7.330;2023-04-24T04:31:32;15.32;;;9.50;;
62997;SDS011;55949;52.590;7.330;2023-04-24T04:32:33;13.85;;;9.43;;
62997;SDS011;55949;52.590;7.330;2023-04-24T04:33:34;14.38;;;9.55;;
62997;SDS011;55949;52.590;7.330;2023-04-24T04:34:36;12.40;;;9.02;;
62997;SDS011;55949;52.590;7.330;2023-04-24T04:35:37;12.50;;;9.00;;
62997;SDS011;55949;52.590;7.330;2023-04-24T04:36:38;15.23;;;9.52;;
62997;SDS011;55949;52.590;7.330;2023-04-24T04:37:40;16.88;;;10.25;;
62997;SDS011;55949;52.590;7.330;2023-04-24T04:38:40;14.00;;;9.32;;
62997;SDS011;55949;52.590;7.330;2023-04-24T04:39:42;14.07;;;10.10;;
62997;SDS011;55949;52.590;7.330;2023-04-24T04:40:43;13.88;;;8.88;;
62997;SDS011;55949;52.590;7.330;2023-04-24T04:41:45;13.95;;;9.50;;
62997;SDS011;55949;52.590;7.330;2023-04-24T04:42:48;14.63;;;9.18;;
62997;SDS011;55949;52.590;7.330;2023-04-24T04:43:52;12.55;;;9.00;;
62997;SDS011;55949;52.590;7.330;2023-04-24T04:44:53;15.40;;;9.10;;
62997;SDS011;55949;52.590;7.330;2023-04-24T04:45:56;13.50;;;10.20;;
62997;SDS011;55949;52.590;7.330;2023-04-24T04:46:58;16.00;;;9.68;;
62997;SDS011;55949;52.590;7.330;2023-04-24T04:48:00;14.70;;;8.65;;
62997;SDS011;55949;52.590;7.330;2023-04-24T04:49:02;14.25;;;9.48;;
62997;SDS011;55949;52.590;7.330;2023-04-24T04:50:03;12.30;;;9.15;;
62997;SDS011;55949;52.590;7.330;2023-04-24T04:51:05;17.67;;;9.75;;
62997;SDS011;55949;52.590;7.330;2023-04-24T04:52:06;12.57;;;8.82;;
62997;SDS011;55949;52.590;7.330;2023-04-24T04:53:07;13.80;;;9.13;;
62997;SDS011;55949;52.590;7.330;2023-04-24T04:54:07;14.85;;;9.40;;
62997;SDS011;55949;52.590;7.330;2023-04-24T04:55:08;14.00;;;9.23;;
62997;SDS011;55949;52.590;7.330;2023-04-24T04:56:09;14.73;;;8.98;;
62997;SDS011;55949;52.590;7.330;2023-04-24T04:57:10;16.55;;;10.43;;
62997;SDS011;55949;52.590;7.330;2023-04-24T04:58:10;16.55;;;9.15;;
62997;SDS011;55949;52.590;7.330;2023-04-24T04:59:11;14.10;;;9.95;;
62997;SDS011;55949;52.590;7.330;2023-04-24T05:00:12;15.48;;;9.65;;
62997;SDS011;55949;52.590;7.330;2023-04-24T05:01:13;12.88;;;9.07;;
62997;SDS011;55949;52.590;7.330;2023-04-24T05:02:14;15.43;;;10.45;;
62997;SDS011;55949;52.590;7.330;2023-04-24T05:03:15;13.88;;;9.05;;
62997;SDS011;55949;52.590;7.330;2023-04-24T05:04:16;15.63;;;10.85;;
62997;SDS011;55949;52.590;7.330;2023-04-24T05:05:17;15.60;;;9.75;;
62997;SDS011;55949;52.590;7.330;2023-04-24T05:06:18;16.33;;;10.02;;
62997;SDS011;55949;52.590;7.330;2023-04-24T05:07:19;16.13;;;10.63;;
62997;SDS011;55949;52.590;7.330;2023-04-24T05:08:20;17.10;;;11.10;;
62997;SDS011;55949;52.590;7.330;2023-04-24T05:09:21;16.10;;;10.50;;
62997;SDS011;55949;52.590;7.330;2023-04-24T05:10:22;15.07;;;9.60;;
62997;SDS011;55949;52.590;7.330;2023-04-24T05:11:22;17.70;;;11.30;;
62997;SDS011;55949;52.590;7.330;2023-04-24T05:12:23;21.98;;;11.40;;
62997;SDS011;55949;52.590;7.330;2023-04-24T05:13:24;16.13;;;11.00;;
62997;SDS011;55949;52.590;7.330;2023-04-24T05:14:25;18.30;;;11.27;;
62997;SDS011;55949;52.590;7.330;2023-04-24T05:15:25;17.17;;;10.45;;
62997;SDS011;55949;52.590;7.330;2023-04-24T05:16:26;17.50;;;11.60;;
62997;SDS011;55949;52.590;7.330;2023-04-24T05:17:27;18.45;;;10.70;;
62997;SDS011;55949;52.590;7.330;2023-04-24T05:18:27;17.85;;;10.80;;
62997;SDS011;55949;52.590;7.330;2023-04-24T05:19:28;18.08;;;11.93;;
62997;SDS011;55949;52.590;7.330;2023-04-24T05:20:29;18.23;;;11.68;;
62997;SDS011;55949;52.590;7.330;2023-04-24T05:21:30;17.48;;;10.85;;
62997;SDS011;55949;52.590;7.330;2023-04-24T05:22:31;17.27;;;11.13;;
62997;SDS011;55949;52.590;7.330;2023-04-24T05:23:32;18.23;;;11.32;;
62997;SDS011;55949;52.590;7.330;2023-04-24T05:24:33;17.83;;;11.50;;
62997;SDS011;55949;52.590;7.330;2023-04-24T05:25:34;19.27;;;11.73;;
62997;SDS011;55949;52.590;7.330;2023-04-24T05:26:36;16.77;;;11.07;;
62997;SDS011;55949;52.590;7.330;2023-04-24T05:27:36;16.13;;;11.07;;
62997;SDS011;55949;52.590;7.330;2023-04-24T05:28:37;18.42;;;11.77;;
62997;SDS011;55949;52.590;7.330;2023-04-24T05:29:38;15.93;;;10.98;;
62997;SDS011;55949;52.590;7.330;2023-04-24T05:30:40;17.30;;;11.23;;
62997;SDS011;55949;52.590;7.330;2023-04-24T05:31:40;15.07;;;11.00;;
62997;SDS011;55949;52.590;7.330;2023-04-24T05:32:41;19.63;;;12.25;;
62997;SDS011;55949;52.590;7.330;2023-04-24T05:33:42;16.67;;;11.13;;
62997;SDS011;55949;52.590;7.330;2023-04-24T05:34:43;15.65;;;10.80;;
62997;SDS011;55949;52.590;7.330;2023-04-24T05:35:44;16.42;;;10.82;;
62997;SDS011;55949;52.590;7.330;2023-04-24T05:36:46;18.45;;;11.35;;
62997;SDS011;55949;52.590;7.330;2023-04-24T05:37:48;16.25;;;11.52;;
62997;SDS011;55949;52.590;7.330;2023-04-24T05:38:49;18.02;;;10.82;;
62997;SDS011;55949;52.590;7.330;2023-04-24T05:39:49;16.90;;;11.75;;
62997;SDS011;55949;52.590;7.330;2023-04-24T05:40:51;18.52;;;11.75;;
62997;SDS011;55949;52.590;7.330;2023-04-24T05:41:52;18.55;;;12.05;;
62997;SDS011;55949;52.590;7.330;2023-04-24T05:42:52;16.58;;;11.75;;
62997;SDS011;55949;52.590;7.330;2023-04-24T05:43:53;18.52;;;12.30;;
62997;SDS011;55949;52.590;7.330;2023-04-24T05:44:56;18.30;;;11.50;;
62997;SDS011;55949;52.590;7.330;2023-04-24T05:45:57;17.02;;;12.40;;
62997;SDS011;55949;52.590;7.330;2023-04-24T05:46:58;18.02;;;11.82;;
62997;SDS011;55949;52.590;7.330;2023-04-24T05:47:59;16.15;;;11.32;;
62997;SDS011;55949;52.590;7.330;2023-04-24T05:49:00;18.33;;;11.30;;
62997;SDS011;55949;52.590;7.330;2023-04-24T05:50:01;19.77;;;13.05;;
62997;SDS011;55949;52.590;7.330;2023-04-24T05:51:02;19.85;;;12.10;;
62997;SDS011;55949;52.590;7.330;2023-04-24T05:52:03;16.63;;;12.20;;
62997;SDS011;55949;52.590;7.330;2023-04-24T05:53:06;16.30;;;11.95;;
62997;SDS011;55949;52.590;7.330;2023-04-24T05:54:07;19.02;;;11.02;;
62997;SDS011;55949;52.590;7.330;2023-04-24T05:55:08;16.92;;;12.90;;
62997;SDS011;55949;52.590;7.330;2023-04-24T05:56:09;20.00;;;12.57;;
62997;SDS011;55949;52.590;7.330;2023-04-24T05:57:10;19.67;;;12.40;;
62997;SDS011;55949;52.590;7.330;2023-04-24T05:58:11;20.20;;;12.95;;
62997;SDS011;55949;52.590;7.330;2023-04-24T05:59:12;18.33;;;12.50;;
62997;SDS011;55949;52.590;7.330;2023-04-24T06:00:13;17.20;;;12.10;;
62997;SDS011;55949;52.590;7.330;2023-04-24T06:01:14;20.35;;;12.85;;
62997;SDS011;55949;52.590;7.330;2023-04-24T06:02:15;20.63;;;12.73;;
62997;SDS011;55949;52.590;7.330;2023-04-24T06:03:16;17.73;;;12.25;;
62997;SDS011;55949;52.590;7.330;2023-04-24T06:04:17;20.10;;;13.65;;